sensor_id;sensor_type;location;lat;lon;timestamp;pressure;altitude;pressure_sealevel;temperature;humidity
15263;BME280;7733;51.554;13.590;2023-04-02T00:01:17;99810.19;;;7.62;100.00
15263;BME280;7733;51.554;13.590;2023-04-02T00:08:50;99834.50;;;7.66;100.00
15263;BME280;7733;51.554;13.590;2023-04-02T00:11:35;99839.47;;;7.87;100.00
15263;BME280;7733;51.554;13.590;2023-04-02T00:14:14;99839.31;;;7.98;100.00
15263;BME280;7733;51.554;13.590;2023-04-02T00:16:41;99850.22;;;7.58;100.00
15263;BME280;7733;51.554;13.590;2023-04-02T00:19:17;99851.75;;;7.78;100.00
15263;BME280;7733;51.554;13.590;2023-04-02T00:21:45;99856.91;;;7.84;100.00
15263;BME280;7733;51.554;13.590;2023-04-02T00:24:19;99851.13;;;8.30;100.00
15263;BME280;7733;51.554;13.590;2023-04-02T00:26:49;99854.97;;;8.01;100.00
15263;BME280;7733;51.554;13.590;2023-04-02T00:29:17;99859.44;;;7.91;100.00
15263;BME280;7733;51.554;13.590;2023-04-02T00:31:53;99872.84;;;7.58;100.00
15263;BME280;7733;51.554;13.590;2023-04-02T00:34:32;99869.28;;;7.67;100.00
15263;BME280;7733;51.554;13.590;2023-04-02T00:37:00;99873.69;;;7.60;100.00
15263;BME280;7733;51.554;13.590;2023-04-02T00:39:37;99882.84;;;7.12;100.00
15263;BME280;7733;51.554;13.590;2023-04-02T00:42:06;99881.50;;;7.60;100.00
15263;BME280;7733;51.554;13.590;2023-04-02T00:44:37;99891.19;;;7.50;100.00
15263;BME280;7733;51.554;13.590;2023-04-02T00:47:19;99889.53;;;7.43;100.00
15263;BME280;7733;51.554;13.590;2023-04-02T00:49:48;99896.53;;;7.35;100.00
15263;BME280;7733;51.554;13.590;2023-04-02T00:52:22;99902.59;;;7.39;100.00
15263;BME280;7733;51.554;13.590;2023-04-02T00:55:02;99910.13;;;7.71;100.00
15263;BME280;7733;51.554;13.590;2023-04-02T00:57:30;99910.63;;;7.16;100.00
15263;BME280;7733;51.554;13.590;2023-04-02T01:00:26;99920.28;;;7.06;100.00
15263;BME280;7733;51.554;13.590;2023-04-02T01:05:50;99925.28;;;7.32;100.00
15263;BME280;7733;51.554;13.590;2023-04-02T01:18:02;99940.28;;;7.03;100.00
15263;BME280;7733;51.554;13.590;2023-04-02T01:24:03;99947.69;;;7.54;100.00
15263;BME280;7733;51.554;13.590;2023-04-02T01:27:01;99947.91;;;7.30;100.00
15263;BME280;7733;51.554;13.590;2023-04-02T01:29:41;99949.53;;;7.40;100.00
15263;BME280;7733;51.554;13.590;2023-04-02T01:32:18;99960.16;;;7.19;100.00
15263;BME280;7733;51.554;13.590;2023-04-02T01:34:46;99963.81;;;6.90;100.00
15263;BME280;7733;51.554;13.590;2023-04-02T01:40:27;99968.75;;;7.33;100.00
15263;BME280;7733;51.554;13.590;2023-04-02T01:45:51;99981.34;;;7.86;100.00
15263;BME280;7733;51.554;13.590;2023-04-02T01:48:23;99992.91;;;7.56;100.00
15263;BME280;7733;51.554;13.590;2023-04-02T01:50:54;99999.94;;;7.48;100.00
15263;BME280;7733;51.554;13.590;2023-04-02T01:53:26;100005.00;;;7.67;100.00
15263;BME280;7733;51.554;13.590;2023-04-02T01:56:01;100007.09;;;7.19;100.00
15263;BME280;7733;51.554;13.590;2023-04-02T01:58:30;100017.50;;;7.25;100.00
15263;BME280;7733;51.554;13.590;2023-04-02T02:01:07;100010.59;;;7.21;100.00
15263;BME280;7733;51.554;13.590;2023-04-02T02:03:40;100018.50;;;6.99;100.00
15263;BME280;7733;51.554;13.590;2023-04-02T02:06:14;100023.72;;;6.99;100.00
15263;BME280;7733;51.554;13.590;2023-04-02T02:08:48;100029.06;;;6.81;100.00
15263;BME280;7733;51.554;13.590;2023-04-02T02:11:20;100035.69;;;7.32;100.00
15263;BME280;7733;51.554;13.590;2023-04-02T02:13:58;100038.50;;;7.04;100.00
15263;BME280;7733;51.554;13.590;2023-04-02T02:16:27;100045.47;;;6.98;100.00
15263;BME280;7733;51.554;13.590;2023-04-02T02:18:58;100052.38;;;7.09;100.00
15263;BME280;7733;51.554;13.590;2023-04-02T02:21:49;100047.19;;;6.98;100.00
15263;BME280;7733;51.554;13.590;2023-04-02T02:24:36;100051.56;;;6.96;100.00
15263;BME280;7733;51.554;13.590;2023-04-02T02:30:14;100062.13;;;6.59;100.00
15263;BME280;7733;51.554;13.590;2023-04-02T02:33:05;100066.34;;;6.92;100.00
15263;BME280;7733;51.554;13.590;2023-04-02T02:35:58;100069.81;;;6.94;100.00
15263;BME280;7733;51.554;13.590;2023-04-02T02:41:34;100081.22;;;6.70;100.00
15263;BME280;7733;51.554;13.590;2023-04-02T02:44:13;100089.91;;;6.71;100.00
15263;BME280;7733;51.554;13.590;2023-04-02T02:47:14;100103.03;;;6.28;100.00
15263;BME280;7733;51.554;13.590;2023-04-02T02:49:46;100101.28;;;6.43;100.00
15263;BME280;7733;51.554;13.590;2023-04-02T02:52:24;100102.09;;;6.52;100.00
15263;BME280;7733;51.554;13.590;2023-04-02T02:55:01;100103.84;;;6.61;100.00
15263;BME280;7733;51.554;13.590;2023-04-02T02:57:32;100102.09;;;6.54;100.00
15263;BME280;7733;51.554;13.590;2023-04-02T03:00:03;100102.91;;;6.72;100.00
15263;BME280;7733;51.554;13.590;2023-04-02T03:02:36;100113.41;;;6.37;100.00
15263;BME280;7733;51.554;13.590;2023-04-02T03:05:04;100116.03;;;6.44;100.00
15263;BME280;7733;51.554;13.590;2023-04-02T03:07:32;100120.34;;;6.63;100.00
15263;BME280;7733;51.554;13.590;2023-04-02T03:12:42;100130.81;;;6.28;100.00
15263;BME280;7733;51.554;13.590;2023-04-02T03:18:12;100148.16;;;6.24;100.00
15263;BME280;7733;51.554;13.590;2023-04-02T03:20:50;100156.84;;;6.16;100.00
15263;BME280;7733;51.554;13.590;2023-04-02T03:23:36;100164.66;;;6.48;100.00
15263;BME280;7733;51.554;13.590;2023-04-02T03:29:12;100172.41;;;5.84;100.00
15263;BME280;7733;51.554;13.590;2023-04-02T03:31:46;100181.97;;;5.98;100.00
15263;BME280;7733;51.554;13.590;2023-04-02T03:34:24;100180.25;;;5.90;100.00
15263;BME280;7733;51.554;13.590;2023-04-02T03:36:58;100187.22;;;6.18;100.00
15263;BME280;7733;51.554;13.590;2023-04-02T03:39:38;100193.31;;;6.29;100.00
15263;BME280;7733;51.554;13.590;2023-04-02T03:42:18;100201.13;;;6.29;100.00
15263;BME280;7733;51.554;13.590;2023-04-02T03:45:26;100208.06;;;6.50;100.00
15263;BME280;7733;51.554;13.590;2023-04-02T03:48:09;100212.38;;;6.08;100.00
15263;BME280;7733;51.554;13.590;2023-04-02T03:50:59;100214.09;;;5.91;100.00
15263;BME280;7733;51.554;13.590;2023-04-02T03:53:28;100222.72;;;5.83;100.00
15263;BME280;7733;51.554;13.590;2023-04-02T03:55:58;100224.56;;;6.31;100.00
15263;BME280;7733;51.554;13.590;2023-04-02T03:58:37;100240.88;;;5.63;100.00
15263;BME280;7733;51.554;13.590;2023-04-02T04:01:17;100245.41;;;6.52;100.00
15263;BME280;7733;51.554;13.590;2023-04-02T04:03:50;100252.34;;;6.30;100.00
15263;BME280;7733;51.554;13.590;2023-04-02T04:06:23;100264.50;;;6.28;100.00
15263;BME280;7733;51.554;13.590;2023-04-02T04:08:58;100260.16;;;6.36;100.00
15263;BME280;7733;51.554;13.590;2023-04-02T04:11:32;100278.28;;;5.94;100.00
15263;BME280;7733;51.554;13.590;2023-04-02T04:14:16;100269.63;;;5.99;100.00
15263;BME280;7733;51.554;13.590;2023-04-02T04:17:00;100286.06;;;5.85;100.00
15263;BME280;7733;51.554;13.590;2023-04-02T04:19:45;100292.09;;;5.80;100.00
15263;BME280;7733;51.554;13.590;2023-04-02T04:22:25;100294.66;;;5.64;100.00
15263;BME280;7733;51.554;13.590;2023-04-02T04:25:03;100305.25;;;6.09;100.00
15263;BME280;7733;51.554;13.590;2023-04-02T04:27:44;100308.63;;;5.84;100.00
15263;BME280;7733;51.554;13.590;2023-04-02T04:30:30;100311.31;;;6.08;100.00
15263;BME280;7733;51.554;13.590;2023-04-02T04:33:14;100323.41;;;5.93;100.00
15263;BME280;7733;51.554;13.590;2023-04-02T04:35:48;100328.75;;;6.26;98.37
15263;BME280;7733;51.554;13.590;2023-04-02T04:38:28;100337.25;;;5.86;99.77
15263;BME280;7733;51.554;13.590;2023-04-02T04:41:04;100346.69;;;5.64;100.00
15263;BME280;7733;51.554;13.590;2023-04-02T04:49:12;100359.69;;;5.64;98.38
15263;BME280;7733;51.554;13.590;2023-04-02T04:52:17;100369.34;;;5.88;98.67
15263;BME280;7733;51.554;13.590;2023-04-02T04:54:45;100383.09;;;5.61;98.33
15263;BME280;7733;51.554;13.590;2023-04-02T05:00:03;100387.47;;;5.66;98.18
15263;BME280;7733;51.554;13.590;2023-04-02T05:02:42;100387.63;;;5.98;96.63
15263;BME280;7733;51.554;13.590;2023-04-02T05:05:28;100392.78;;;5.88;96.98
15263;BME280;7733;51.554;13.590;2023-04-02T05:07:59;100389.38;;;5.96;97.25
15263;BME280;7733;51.554;13.590;2023-04-02T05:10:43;100408.53;;;6.12;96.64
15263;BME280;7733;51.554;13.590;2023-04-02T05:13:49;100410.19;;;5.98;96.92
15263;BME280;7733;51.554;13.590;2023-04-02T05:16:40;100410.00;;;5.66;96.53
15263;BME280;7733;51.554;13.590;2023-04-02T05:25:26;100424.66;;;5.55;98.94
15263;BME280;7733;51.554;13.590;2023-04-02T05:30:52;100434.41;;;5.83;97.82
15263;BME280;7733;51.554;13.590;2023-04-02T05:33:25;100436.16;;;5.86;98.39
15263;BME280;7733;51.554;13.590;2023-04-02T05:36:06;100444.91;;;6.00;97.55
15263;BME280;7733;51.554;13.590;2023-04-02T05:38:36;100452.88;;;6.23;96.35
15263;BME280;7733;51.554;13.590;2023-04-02T05:41:26;100460.69;;;6.27;96.32
15263;BME280;7733;51.554;13.590;2023-04-02T05:44:19;100462.34;;;6.10;96.87
15263;BME280;7733;51.554;13.590;2023-04-02T05:52:24;100482.38;;;6.22;95.97
15263;BME280;7733;51.554;13.590;2023-04-02T05:57:48;100489.19;;;6.00;96.31
15263;BME280;7733;51.554;13.590;2023-04-02T06:00:24;100492.72;;;6.06;96.37
15263;BME280;7733;51.554;13.590;2023-04-02T06:03:05;100498.03;;;6.26;96.19
15263;BME280;7733;51.554;13.590;2023-04-02T06:05:37;100498.03;;;6.26;95.10
15263;BME280;7733;51.554;13.590;2023-04-02T06:08:38;100520.63;;;6.30;94.57
15263;BME280;7733;51.554;13.590;2023-04-02T06:11:13;100518.66;;;5.93;95.16
15263;BME280;7733;51.554;13.590;2023-04-02T06:13:42;100524.13;;;6.38;94.91
15263;BME280;7733;51.554;13.590;2023-04-02T06:16:13;100534.56;;;6.40;93.95
15263;BME280;7733;51.554;13.590;2023-04-02T06:18:42;100545.81;;;6.34;93.43
15263;BME280;7733;51.554;13.590;2023-04-02T06:21:13;100537.31;;;6.72;92.37
15263;BME280;7733;51.554;13.590;2023-04-02T06:23:58;100547.72;;;6.66;92.51
15263;BME280;7733;51.554;13.590;2023-04-02T06:26:52;100556.22;;;6.31;92.43
15263;BME280;7733;51.554;13.590;2023-04-02T06:29:36;100551.88;;;6.32;94.10
15263;BME280;7733;51.554;13.590;2023-04-02T06:32:07;100560.41;;;6.03;94.16
15263;BME280;7733;51.554;13.590;2023-04-02T06:34:37;100557.97;;;6.35;93.77
15263;BME280;7733;51.554;13.590;2023-04-02T06:39:36;100568.09;;;5.93;94.74
15263;BME280;7733;51.554;13.590;2023-04-02T06:42:17;100571.97;;;6.48;92.19
15263;BME280;7733;51.554;13.590;2023-04-02T06:44:44;100575.03;;;5.91;94.15
15263;BME280;7733;51.554;13.590;2023-04-02T06:47:33;100585.03;;;6.59;92.27
15263;BME280;7733;51.554;13.590;2023-04-02T06:50:13;100587.69;;;6.65;90.76
15263;BME280;7733;51.554;13.590;2023-04-02T06:52:47;100589.34;;;6.52;91.19
15263;BME280;7733;51.554;13.590;2023-04-02T06:57:52;100601.53;;;6.56;91.34
15263;BME280;7733;51.554;13.590;2023-04-02T07:00:40;100610.06;;;6.32;91.60
15263;BME280;7733;51.554;13.590;2023-04-02T07:03:21;100610.78;;;6.10;92.59
15263;BME280;7733;51.554;13.590;2023-04-02T07:05:47;100620.31;;;6.11;92.90
15263;BME280;7733;51.554;13.590;2023-04-02T07:08:13;100622.22;;;6.30;91.40
15263;BME280;7733;51.554;13.590;2023-04-02T07:10:39;100622.31;;;6.41;91.75
15263;BME280;7733;51.554;13.590;2023-04-02T07:13:05;100626.06;;;6.95;89.24
15263;BME280;7733;51.554;13.590;2023-04-02T07:15:31;100633.78;;;6.80;90.49
15263;BME280;7733;51.554;13.590;2023-04-02T07:17:58;100636.94;;;6.22;90.15
15263;BME280;7733;51.554;13.590;2023-04-02T07:20:31;100638.75;;;6.37;89.70
15263;BME280;7733;51.554;13.590;2023-04-02T07:22:57;100642.22;;;6.36;90.23
15263;BME280;7733;51.554;13.590;2023-04-02T07:25:25;100649.88;;;6.18;90.35
15263;BME280;7733;51.554;13.590;2023-04-02T07:27:52;100655.16;;;6.22;91.01
15263;BME280;7733;51.554;13.590;2023-04-02T07:30:18;100646.88;;;5.76;91.07
15263;BME280;7733;51.554;13.590;2023-04-02T07:32:44;100656.53;;;5.87;91.12
15263;BME280;7733;51.554;13.590;2023-04-02T07:35:11;100660.97;;;5.95;90.29
15263;BME280;7733;51.554;13.590;2023-04-02T07:37:37;100665.56;;;6.21;90.13
15263;BME280;7733;51.554;13.590;2023-04-02T07:40:16;100666.06;;;5.85;90.12
15263;BME280;7733;51.554;13.590;2023-04-02T07:42:43;100672.94;;;5.79;90.39
15263;BME280;7733;51.554;13.590;2023-04-02T07:45:09;100677.44;;;5.93;90.01
15263;BME280;7733;51.554;13.590;2023-04-02T07:47:35;100682.69;;;5.96;89.42
15263;BME280;7733;51.554;13.590;2023-04-02T07:50:01;100686.47;;;6.31;89.65
15263;BME280;7733;51.554;13.590;2023-04-02T07:52:27;100687.16;;;6.10;89.66
15263;BME280;7733;51.554;13.590;2023-04-02T07:54:52;100690.84;;;6.38;90.21
15263;BME280;7733;51.554;13.590;2023-04-02T07:57:18;100693.19;;;6.05;90.95
15263;BME280;7733;51.554;13.590;2023-04-02T07:59:44;100697.03;;;6.47;90.16
15263;BME280;7733;51.554;13.590;2023-04-02T08:02:20;100707.34;;;6.37;88.80
15263;BME280;7733;51.554;13.590;2023-04-02T08:04:50;100707.47;;;6.50;89.48
15263;BME280;7733;51.554;13.590;2023-04-02T08:07:17;100710.03;;;6.47;89.15
15263;BME280;7733;51.554;13.590;2023-04-02T08:09:43;100714.19;;;6.23;89.29
15263;BME280;7733;51.554;13.590;2023-04-02T08:12:13;100722.97;;;6.34;89.00
15263;BME280;7733;51.554;13.590;2023-04-02T08:14:39;100723.91;;;6.43;89.75
15263;BME280;7733;51.554;13.590;2023-04-02T08:17:05;100734.69;;;6.93;88.14
15263;BME280;7733;51.554;13.590;2023-04-02T08:19:30;100742.31;;;6.64;88.23
15263;BME280;7733;51.554;13.590;2023-04-02T08:21:58;100742.06;;;6.33;88.72
15263;BME280;7733;51.554;13.590;2023-04-02T08:24:23;100744.63;;;6.27;88.51
15263;BME280;7733;51.554;13.590;2023-04-02T08:26:49;100746.31;;;6.24;89.28
15263;BME280;7733;51.554;13.590;2023-04-02T08:29:18;100747.56;;;6.68;88.67
15263;BME280;7733;51.554;13.590;2023-04-02T08:31:44;100748.41;;;6.64;89.16
15263;BME280;7733;51.554;13.590;2023-04-02T08:34:10;100752.78;;;6.70;88.00
15263;BME280;7733;51.554;13.590;2023-04-02T08:36:40;100756.22;;;6.63;88.74
15263;BME280;7733;51.554;13.590;2023-04-02T08:39:07;100759.53;;;6.44;88.57
15263;BME280;7733;51.554;13.590;2023-04-02T08:41:57;100763.38;;;6.91;87.13
15263;BME280;7733;51.554;13.590;2023-04-02T08:47:42;100768.47;;;6.79;87.25
15263;BME280;7733;51.554;13.590;2023-04-02T08:50:20;100775.19;;;6.48;87.86
15263;BME280;7733;51.554;13.590;2023-04-02T08:52:48;100780.31;;;6.39;88.52
15263;BME280;7733;51.554;13.590;2023-04-02T09:00:42;100792.03;;;6.90;86.65
15263;BME280;7733;51.554;13.590;2023-04-02T09:05:49;100796.84;;;6.41;88.66
15263;BME280;7733;51.554;13.590;2023-04-02T09:08:24;100797.72;;;6.42;87.74
15263;BME280;7733;51.554;13.590;2023-04-02T09:11:26;100803.09;;;6.60;86.59
15263;BME280;7733;51.554;13.590;2023-04-02T09:13:59;100804.69;;;6.44;88.02
15263;BME280;7733;51.554;13.590;2023-04-02T09:19:24;100815.31;;;6.65;86.50
15263;BME280;7733;51.554;13.590;2023-04-02T09:22:22;100819.75;;;6.79;85.85
15263;BME280;7733;51.554;13.590;2023-04-02T09:24:57;100825.56;;;6.49;86.56
15263;BME280;7733;51.554;13.590;2023-04-02T09:27:30;100830.28;;;6.88;85.94
15263;BME280;7733;51.554;13.590;2023-04-02T09:33:03;100839.97;;;7.04;84.75
15263;BME280;7733;51.554;13.590;2023-04-02T09:35:35;100845.72;;;6.66;86.16
15263;BME280;7733;51.554;13.590;2023-04-02T09:38:18;100849.09;;;6.58;86.88
15263;BME280;7733;51.554;13.590;2023-04-02T09:43:25;100858.66;;;6.59;85.83
15263;BME280;7733;51.554;13.590;2023-04-02T09:46:03;100862.31;;;6.76;85.79
15263;BME280;7733;51.554;13.590;2023-04-02T09:48:49;100870.25;;;6.87;86.63
15263;BME280;7733;51.554;13.590;2023-04-02T09:51:30;100871.16;;;6.90;85.76
15263;BME280;7733;51.554;13.590;2023-04-02T09:56:33;100870.47;;;7.17;85.62
15263;BME280;7733;51.554;13.590;2023-04-02T10:01:56;100882.63;;;7.14;85.03
15263;BME280;7733;51.554;13.590;2023-04-02T10:04:44;100887.13;;;7.33;84.05
15263;BME280;7733;51.554;13.590;2023-04-02T10:07:40;100896.78;;;7.43;85.10
15263;BME280;7733;51.554;13.590;2023-04-02T10:10:36;100894.25;;;7.57;83.33
15263;BME280;7733;51.554;13.590;2023-04-02T10:13:45;100902.41;;;6.89;83.30
15263;BME280;7733;51.554;13.590;2023-04-02T10:16:27;100894.09;;;7.34;82.17
15263;BME280;7733;51.554;13.590;2023-04-02T10:19:18;100903.63;;;7.26;81.42
15263;BME280;7733;51.554;13.590;2023-04-02T10:21:47;100898.31;;;7.18;81.62
15263;BME280;7733;51.554;13.590;2023-04-02T10:24:16;100909.88;;;7.49;80.06
15263;BME280;7733;51.554;13.590;2023-04-02T10:27:03;100907.28;;;7.54;79.26
15263;BME280;7733;51.554;13.590;2023-04-02T10:32:49;100911.59;;;7.44;79.13
15263;BME280;7733;51.554;13.590;2023-04-02T10:35:55;100914.22;;;7.50;78.59
15263;BME280;7733;51.554;13.590;2023-04-02T10:39:13;100922.03;;;7.49;78.34
15263;BME280;7733;51.554;13.590;2023-04-02T10:41:30;100922.81;;;7.37;78.67
15263;BME280;7733;51.554;13.590;2023-04-02T10:46:46;100928.25;;;7.66;78.18
15263;BME280;7733;51.554;13.590;2023-04-02T10:49:32;100933.50;;;7.69;78.36
15263;BME280;7733;51.554;13.590;2023-04-02T10:52:23;100930.03;;;7.70;79.19
15263;BME280;7733;51.554;13.590;2023-04-02T10:54:55;100941.31;;;7.68;78.74
15263;BME280;7733;51.554;13.590;2023-04-02T10:57:42;100951.81;;;7.80;79.11
15263;BME280;7733;51.554;13.590;2023-04-02T11:05:24;100955.50;;;8.06;77.65
15263;BME280;7733;51.554;13.590;2023-04-02T11:08:41;100953.63;;;7.84;78.43
15263;BME280;7733;51.554;13.590;2023-04-02T11:11:42;100968.47;;;7.97;77.89
15263;BME280;7733;51.554;13.590;2023-04-02T11:14:18;100966.03;;;8.21;76.95
15263;BME280;7733;51.554;13.590;2023-04-02T11:16:48;100970.22;;;7.95;77.49
15263;BME280;7733;51.554;13.590;2023-04-02T11:21:53;100977.84;;;7.61;78.39
15263;BME280;7733;51.554;13.590;2023-04-02T11:30:23;100990.34;;;8.11;78.38
15263;BME280;7733;51.554;13.590;2023-04-02T11:32:50;100992.00;;;7.97;77.78
15263;BME280;7733;51.554;13.590;2023-04-02T11:40:58;100987.72;;;8.05;75.73
15263;BME280;7733;51.554;13.590;2023-04-02T11:46:05;101005.00;;;7.88;78.53
15263;BME280;7733;51.554;13.590;2023-04-02T11:48:50;101005.16;;;8.15;77.46
15263;BME280;7733;51.554;13.590;2023-04-02T11:53:50;101018.94;;;7.91;76.79
15263;BME280;7733;51.554;13.590;2023-04-02T11:56:30;101023.34;;;7.97;77.12
15263;BME280;7733;51.554;13.590;2023-04-02T11:59:30;101025.19;;;8.10;76.98
15263;BME280;7733;51.554;13.590;2023-04-02T12:10:21;101043.44;;;8.03;75.94
15263;BME280;7733;51.554;13.590;2023-04-02T12:12:48;101044.19;;;7.88;76.81
15263;BME280;7733;51.554;13.590;2023-04-02T12:15:42;101059.84;;;7.88;77.01
15263;BME280;7733;51.554;13.590;2023-04-02T12:18:22;101059.16;;;8.10;75.23
15263;BME280;7733;51.554;13.590;2023-04-02T12:20:54;101057.84;;;7.58;75.46
15263;BME280;7733;51.554;13.590;2023-04-02T12:23:32;101070.16;;;7.73;76.02
15263;BME280;7733;51.554;13.590;2023-04-02T12:26:24;101068.56;;;7.87;76.23
15263;BME280;7733;51.554;13.590;2023-04-02T12:28:50;101063.22;;;7.76;76.26
15263;BME280;7733;51.554;13.590;2023-04-02T12:31:20;101072.09;;;7.93;76.18
15263;BME280;7733;51.554;13.590;2023-04-02T12:33:51;101074.84;;;8.16;75.57
15263;BME280;7733;51.554;13.590;2023-04-02T12:36:21;101074.81;;;8.09;74.75
15263;BME280;7733;51.554;13.590;2023-04-02T12:41:27;101080.97;;;8.18;74.81
15263;BME280;7733;51.554;13.590;2023-04-02T12:46:27;101089.44;;;7.84;75.25
15263;BME280;7733;51.554;13.590;2023-04-02T12:49:04;101079.16;;;8.07;75.73
15263;BME280;7733;51.554;13.590;2023-04-02T12:51:32;101090.28;;;7.81;75.91
15263;BME280;7733;51.554;13.590;2023-04-02T12:53:59;101090.31;;;7.87;75.05
15263;BME280;7733;51.554;13.590;2023-04-02T12:56:26;101077.56;;;8.32;74.46
15263;BME280;7733;51.554;13.590;2023-04-02T12:58:59;101088.03;;;8.32;74.94
15263;BME280;7733;51.554;13.590;2023-04-02T13:01:30;101094.88;;;8.16;74.90
15263;BME280;7733;51.554;13.590;2023-04-02T13:04:10;101100.09;;;8.11;74.54
15263;BME280;7733;51.554;13.590;2023-04-02T13:06:46;101104.53;;;8.23;75.33
15263;BME280;7733;51.554;13.590;2023-04-02T13:09:30;101106.47;;;8.48;73.89
15263;BME280;7733;51.554;13.590;2023-04-02T13:11:59;101106.00;;;7.87;75.08
15263;BME280;7733;51.554;13.590;2023-04-02T13:14:26;101103.59;;;8.16;75.29
15263;BME280;7733;51.554;13.590;2023-04-02T13:16:52;101112.41;;;8.28;75.06
15263;BME280;7733;51.554;13.590;2023-04-02T13:21:54;101129.41;;;7.80;75.23
15263;BME280;7733;51.554;13.590;2023-04-02T13:24:30;101122.84;;;8.24;74.95
15263;BME280;7733;51.554;13.590;2023-04-02T13:27:01;101121.44;;;8.77;73.70
15263;BME280;7733;51.554;13.590;2023-04-02T13:29:32;101111.69;;;8.44;74.66
15263;BME280;7733;51.554;13.590;2023-04-02T13:32:03;101110.75;;;8.36;73.19
15263;BME280;7733;51.554;13.590;2023-04-02T13:34:31;101126.28;;;8.20;72.41
15263;BME280;7733;51.554;13.590;2023-04-02T13:36:57;101130.16;;;8.77;72.24
15263;BME280;7733;51.554;13.590;2023-04-02T13:39:24;101121.97;;;8.27;72.24
15263;BME280;7733;51.554;13.590;2023-04-02T13:42:02;101127.53;;;8.76;73.54
15263;BME280;7733;51.554;13.590;2023-04-02T13:44:31;101143.84;;;8.34;72.05
15263;BME280;7733;51.554;13.590;2023-04-02T13:46:58;101138.78;;;8.58;70.36
15263;BME280;7733;51.554;13.590;2023-04-02T13:49:26;101139.63;;;8.54;70.78
15263;BME280;7733;51.554;13.590;2023-04-02T13:51:56;101140.38;;;8.38;70.92
15263;BME280;7733;51.554;13.590;2023-04-02T13:57:09;101155.84;;;8.13;69.67
15263;BME280;7733;51.554;13.590;2023-04-02T13:59:36;101148.81;;;8.06;70.06
15263;BME280;7733;51.554;13.590;2023-04-02T14:02:09;101150.75;;;8.30;69.37
15263;BME280;7733;51.554;13.590;2023-04-02T14:04:43;101159.09;;;7.85;69.75
15263;BME280;7733;51.554;13.590;2023-04-02T14:12:57;101158.56;;;8.26;69.82
15263;BME280;7733;51.554;13.590;2023-04-02T14:21:49;101175.28;;;8.41;69.77
15263;BME280;7733;51.554;13.590;2023-04-02T14:24:21;101179.56;;;8.36;69.40
15263;BME280;7733;51.554;13.590;2023-04-02T14:32:03;101174.59;;;8.73;69.13
15263;BME280;7733;51.554;13.590;2023-04-02T14:35:00;101176.19;;;8.49;69.25
15263;BME280;7733;51.554;13.590;2023-04-02T14:41:12;101183.94;;;8.37;71.50
15263;BME280;7733;51.554;13.590;2023-04-02T14:44:03;101177.25;;;8.77;68.09
15263;BME280;7733;51.554;13.590;2023-04-02T14:46:32;101177.09;;;8.56;68.14
15263;BME280;7733;51.554;13.590;2023-04-02T14:49:16;101185.19;;;8.90;67.49
15263;BME280;7733;51.554;13.590;2023-04-02T14:52:04;101182.53;;;8.83;67.93
15263;BME280;7733;51.554;13.590;2023-04-02T14:54:35;101194.63;;;8.66;69.29
15263;BME280;7733;51.554;13.590;2023-04-02T14:57:29;101193.59;;;8.41;69.11
15263;BME280;7733;51.554;13.590;2023-04-02T15:00:23;101189.47;;;8.80;68.04
15263;BME280;7733;51.554;13.590;2023-04-02T15:03:21;101180.66;;;8.64;67.42
15263;BME280;7733;51.554;13.590;2023-04-02T15:06:04;101184.22;;;8.75;68.11
15263;BME280;7733;51.554;13.590;2023-04-02T15:08:44;101182.69;;;9.17;66.88
15263;BME280;7733;51.554;13.590;2023-04-02T15:14:14;101188.66;;;8.86;68.10
15263;BME280;7733;51.554;13.590;2023-04-02T15:16:43;101186.16;;;9.13;66.79
15263;BME280;7733;51.554;13.590;2023-04-02T15:19:14;101194.88;;;9.09;67.76
15263;BME280;7733;51.554;13.590;2023-04-02T15:21:53;101193.06;;;8.96;66.52
15263;BME280;7733;51.554;13.590;2023-04-02T15:24:39;101190.53;;;9.17;66.41
15263;BME280;7733;51.554;13.590;2023-04-02T15:30:13;101196.63;;;9.08;66.30
15263;BME280;7733;51.554;13.590;2023-04-02T15:32:42;101203.38;;;8.74;66.51
15263;BME280;7733;51.554;13.590;2023-04-02T15:43:40;101212.94;;;8.69;67.84
15263;BME280;7733;51.554;13.590;2023-04-02T15:55:33;101229.50;;;8.65;69.69
15263;BME280;7733;51.554;13.590;2023-04-02T15:58:23;101232.19;;;8.80;68.42
15263;BME280;7733;51.554;13.590;2023-04-02T16:07:18;101229.00;;;9.29;66.66
15263;BME280;7733;51.554;13.590;2023-04-02T16:10:15;101236.00;;;9.36;65.86
15263;BME280;7733;51.554;13.590;2023-04-02T16:12:40;101231.72;;;9.58;65.73
15263;BME280;7733;51.554;13.590;2023-04-02T16:15:29;101235.09;;;9.22;67.18
15263;BME280;7733;51.554;13.590;2023-04-02T16:18:13;101238.59;;;9.25;67.15
15263;BME280;7733;51.554;13.590;2023-04-02T16:20:50;101236.06;;;9.45;67.33
15263;BME280;7733;51.554;13.590;2023-04-02T16:23:28;101247.50;;;9.67;65.87
15263;BME280;7733;51.554;13.590;2023-04-02T16:36:41;101263.78;;;9.03;68.17
15263;BME280;7733;51.554;13.590;2023-04-02T16:39:43;101261.28;;;9.29;67.37
15263;BME280;7733;51.554;13.590;2023-04-02T16:42:48;101266.50;;;9.23;67.79
15263;BME280;7733;51.554;13.590;2023-04-02T16:56:36;101291.47;;;8.77;70.40
15263;BME280;7733;51.554;13.590;2023-04-02T17:00:02;101272.72;;;9.48;68.59
15263;BME280;7733;51.554;13.590;2023-04-02T17:05:52;101284.72;;;9.06;70.72
15263;BME280;7733;51.554;13.590;2023-04-02T17:08:35;101290.38;;;8.52;71.70
15263;BME280;7733;51.554;13.590;2023-04-02T17:11:11;101290.66;;;8.82;70.88
15263;BME280;7733;51.554;13.590;2023-04-02T17:13:41;101302.59;;;8.51;72.58
15263;BME280;7733;51.554;13.590;2023-04-02T17:16:12;101300.19;;;8.77;71.86
15263;BME280;7733;51.554;13.590;2023-04-02T17:18:46;101301.13;;;8.86;71.26
15263;BME280;7733;51.554;13.590;2023-04-02T17:21:23;101312.47;;;8.84;71.09
15263;BME280;7733;51.554;13.590;2023-04-02T17:24:25;101322.66;;;8.54;71.48
15263;BME280;7733;51.554;13.590;2023-04-02T17:27:21;101321.59;;;8.34;71.84
15263;BME280;7733;51.554;13.590;2023-04-02T17:29:54;101325.69;;;8.12;72.15